Terminal Aerodrome Forecast
Issued by NWS Jacksonville, FL

Home | Current Version | Previous Version | Text Only | Print | Product List | Glossary On
Versions: 1 2 3 4 5 6 7 8 9 10 11 12 13 14 15 16 17 18 19 20 21 22 23
824
FTUS42 KJAX 220520
TAFGNV
TAF
KGNV 220520Z 2206/2306 07003KT P6SM FEW020
     FM220900 00000KT 3SM BR FEW250
     FM221300 14003KT P6SM SCT025
     FM221800 08007KT P6SM SCT040 SCT250
     FM230000 00000KT P6SM SCT200=

USA.gov is the U.S. government's official web portal to all federal, state and local government web resources and services.